sensor_id;sensor_type;location;lat;lon;timestamp;P1;durP1;ratioP1;P2;durP2;ratioP2
43837;SDS011;65998;46.256;7.534;2023-06-01T00:01:41;47.25;;;20.80;;
43837;SDS011;65998;46.256;7.534;2023-06-01T00:04:07;46.90;;;20.57;;
43837;SDS011;65998;46.256;7.534;2023-06-01T00:06:33;43.78;;;19.70;;
43837;SDS011;65998;46.256;7.534;2023-06-01T00:08:59;45.20;;;20.73;;
43837;SDS011;65998;46.256;7.534;2023-06-01T00:11:25;47.20;;;20.13;;
43837;SDS011;65998;46.256;7.534;2023-06-01T00:13:51;43.42;;;20.20;;
43837;SDS011;65998;46.256;7.534;2023-06-01T00:16:17;45.95;;;21.13;;
43837;SDS011;65998;46.256;7.534;2023-06-01T00:18:44;47.22;;;18.95;;
43837;SDS011;65998;46.256;7.534;2023-06-01T00:21:10;49.33;;;21.60;;
43837;SDS011;65998;46.256;7.534;2023-06-01T00:23:37;45.83;;;20.10;;
43837;SDS011;65998;46.256;7.534;2023-06-01T00:26:02;43.97;;;19.65;;
43837;SDS011;65998;46.256;7.534;2023-06-01T00:28:28;43.15;;;19.35;;
43837;SDS011;65998;46.256;7.534;2023-06-01T00:30:54;42.50;;;19.63;;
43837;SDS011;65998;46.256;7.534;2023-06-01T00:33:20;46.00;;;20.02;;
43837;SDS011;65998;46.256;7.534;2023-06-01T00:35:46;44.28;;;19.90;;
43837;SDS011;65998;46.256;7.534;2023-06-01T00:38:12;39.75;;;19.15;;
43837;SDS011;65998;46.256;7.534;2023-06-01T00:40:38;45.65;;;20.15;;
43837;SDS011;65998;46.256;7.534;2023-06-01T00:43:04;42.28;;;18.95;;
43837;SDS011;65998;46.256;7.534;2023-06-01T00:45:30;44.03;;;20.13;;
43837;SDS011;65998;46.256;7.534;2023-06-01T00:47:56;40.45;;;18.45;;
43837;SDS011;65998;46.256;7.534;2023-06-01T00:50:23;40.75;;;18.27;;
43837;SDS011;65998;46.256;7.534;2023-06-01T00:52:51;38.72;;;17.55;;
43837;SDS011;65998;46.256;7.534;2023-06-01T00:55:17;44.78;;;20.58;;
43837;SDS011;65998;46.256;7.534;2023-06-01T00:57:45;42.20;;;18.77;;
43837;SDS011;65998;46.256;7.534;2023-06-01T01:00:12;39.80;;;17.92;;
43837;SDS011;65998;46.256;7.534;2023-06-01T01:02:39;37.00;;;16.75;;
43837;SDS011;65998;46.256;7.534;2023-06-01T01:05:09;39.78;;;18.13;;
43837;SDS011;65998;46.256;7.534;2023-06-01T01:10:16;42.92;;;19.00;;
43837;SDS011;65998;46.256;7.534;2023-06-01T01:12:54;41.83;;;19.35;;
43837;SDS011;65998;46.256;7.534;2023-06-01T01:18:08;35.55;;;15.57;;
43837;SDS011;65998;46.256;7.534;2023-06-01T01:20:41;40.00;;;18.73;;
43837;SDS011;65998;46.256;7.534;2023-06-01T01:23:45;42.92;;;19.05;;
43837;SDS011;65998;46.256;7.534;2023-06-01T01:29:08;39.50;;;18.10;;
43837;SDS011;65998;46.256;7.534;2023-06-01T01:31:35;38.65;;;17.17;;
43837;SDS011;65998;46.256;7.534;2023-06-01T01:34:03;36.08;;;17.15;;
43837;SDS011;65998;46.256;7.534;2023-06-01T01:36:31;36.28;;;16.02;;
43837;SDS011;65998;46.256;7.534;2023-06-01T01:38:57;40.65;;;17.90;;
43837;SDS011;65998;46.256;7.534;2023-06-01T01:41:23;39.72;;;18.42;;
43837;SDS011;65998;46.256;7.534;2023-06-01T01:43:49;39.15;;;17.88;;
43837;SDS011;65998;46.256;7.534;2023-06-01T01:46:25;36.55;;;16.92;;
43837;SDS011;65998;46.256;7.534;2023-06-01T01:49:00;39.13;;;17.67;;
43837;SDS011;65998;46.256;7.534;2023-06-01T01:51:37;37.70;;;17.38;;
43837;SDS011;65998;46.256;7.534;2023-06-01T01:54:05;34.15;;;15.70;;
43837;SDS011;65998;46.256;7.534;2023-06-01T01:56:35;33.22;;;15.75;;
43837;SDS011;65998;46.256;7.534;2023-06-01T01:59:02;36.67;;;16.90;;
43837;SDS011;65998;46.256;7.534;2023-06-01T02:01:28;35.72;;;16.20;;
43837;SDS011;65998;46.256;7.534;2023-06-01T02:04:02;37.17;;;16.08;;
43837;SDS011;65998;46.256;7.534;2023-06-01T02:06:29;34.10;;;15.93;;
43837;SDS011;65998;46.256;7.534;2023-06-01T02:08:55;33.80;;;15.23;;
43837;SDS011;65998;46.256;7.534;2023-06-01T02:11:21;34.05;;;15.68;;
43837;SDS011;65998;46.256;7.534;2023-06-01T02:13:47;31.30;;;14.88;;
43837;SDS011;65998;46.256;7.534;2023-06-01T02:16:13;33.30;;;15.57;;
43837;SDS011;65998;46.256;7.534;2023-06-01T02:18:39;32.83;;;14.05;;
43837;SDS011;65998;46.256;7.534;2023-06-01T02:21:05;31.85;;;14.98;;
43837;SDS011;65998;46.256;7.534;2023-06-01T02:23:31;30.93;;;13.70;;
43837;SDS011;65998;46.256;7.534;2023-06-01T02:25:57;32.47;;;14.50;;
43837;SDS011;65998;46.256;7.534;2023-06-01T02:28:23;34.00;;;14.93;;
43837;SDS011;65998;46.256;7.534;2023-06-01T02:30:48;31.50;;;13.80;;
43837;SDS011;65998;46.256;7.534;2023-06-01T02:33:14;31.35;;;13.98;;
43837;SDS011;65998;46.256;7.534;2023-06-01T02:35:40;31.87;;;14.33;;
43837;SDS011;65998;46.256;7.534;2023-06-01T02:38:06;33.90;;;14.07;;
43837;SDS011;65998;46.256;7.534;2023-06-01T02:40:31;30.17;;;13.43;;
43837;SDS011;65998;46.256;7.534;2023-06-01T02:42:57;30.48;;;13.25;;
43837;SDS011;65998;46.256;7.534;2023-06-01T02:45:23;28.53;;;12.97;;
43837;SDS011;65998;46.256;7.534;2023-06-01T02:47:49;28.05;;;12.73;;
43837;SDS011;65998;46.256;7.534;2023-06-01T02:50:14;29.77;;;12.88;;
43837;SDS011;65998;46.256;7.534;2023-06-01T02:52:40;25.88;;;11.77;;
43837;SDS011;65998;46.256;7.534;2023-06-01T02:55:06;25.10;;;12.93;;
43837;SDS011;65998;46.256;7.534;2023-06-01T02:57:32;25.10;;;11.50;;
43837;SDS011;65998;46.256;7.534;2023-06-01T02:59:58;28.30;;;12.48;;
43837;SDS011;65998;46.256;7.534;2023-06-01T03:02:24;26.70;;;12.18;;
43837;SDS011;65998;46.256;7.534;2023-06-01T03:04:50;24.02;;;11.23;;
43837;SDS011;65998;46.256;7.534;2023-06-01T03:07:16;25.02;;;11.57;;
43837;SDS011;65998;46.256;7.534;2023-06-01T03:09:41;26.03;;;11.73;;
43837;SDS011;65998;46.256;7.534;2023-06-01T03:12:07;26.38;;;11.98;;
43837;SDS011;65998;46.256;7.534;2023-06-01T03:14:33;23.88;;;10.98;;
43837;SDS011;65998;46.256;7.534;2023-06-01T03:16:59;26.15;;;11.32;;
43837;SDS011;65998;46.256;7.534;2023-06-01T03:19:24;22.60;;;10.85;;
43837;SDS011;65998;46.256;7.534;2023-06-01T03:21:50;24.57;;;11.07;;
43837;SDS011;65998;46.256;7.534;2023-06-01T03:24:16;24.95;;;11.20;;
43837;SDS011;65998;46.256;7.534;2023-06-01T03:26:42;25.73;;;11.13;;
43837;SDS011;65998;46.256;7.534;2023-06-01T03:29:07;23.15;;;10.00;;
43837;SDS011;65998;46.256;7.534;2023-06-01T03:31:34;25.55;;;10.93;;
43837;SDS011;65998;46.256;7.534;2023-06-01T03:34:00;24.20;;;11.02;;
43837;SDS011;65998;46.256;7.534;2023-06-01T03:36:26;21.85;;;10.48;;
43837;SDS011;65998;46.256;7.534;2023-06-01T03:38:52;22.03;;;10.13;;
43837;SDS011;65998;46.256;7.534;2023-06-01T03:41:18;22.08;;;9.77;;
43837;SDS011;65998;46.256;7.534;2023-06-01T03:43:44;21.73;;;9.98;;
43837;SDS011;65998;46.256;7.534;2023-06-01T03:46:10;23.90;;;10.50;;
43837;SDS011;65998;46.256;7.534;2023-06-01T03:48:35;21.02;;;9.70;;
43837;SDS011;65998;46.256;7.534;2023-06-01T03:51:01;21.97;;;9.43;;
43837;SDS011;65998;46.256;7.534;2023-06-01T03:53:27;19.42;;;8.88;;
43837;SDS011;65998;46.256;7.534;2023-06-01T03:55:53;20.02;;;9.20;;
43837;SDS011;65998;46.256;7.534;2023-06-01T03:58:19;17.97;;;8.17;;
43837;SDS011;65998;46.256;7.534;2023-06-01T04:00:45;19.55;;;9.30;;
43837;SDS011;65998;46.256;7.534;2023-06-01T04:03:10;21.00;;;9.43;;
43837;SDS011;65998;46.256;7.534;2023-06-01T04:05:36;18.35;;;8.43;;
43837;SDS011;65998;46.256;7.534;2023-06-01T04:08:02;18.38;;;8.00;;
43837;SDS011;65998;46.256;7.534;2023-06-01T04:10:28;18.95;;;8.85;;
43837;SDS011;65998;46.256;7.534;2023-06-01T04:12:54;19.50;;;9.00;;
43837;SDS011;65998;46.256;7.534;2023-06-01T04:15:20;18.83;;;8.30;;
43837;SDS011;65998;46.256;7.534;2023-06-01T04:17:46;18.10;;;8.37;;
43837;SDS011;65998;46.256;7.534;2023-06-01T04:20:12;17.58;;;8.07;;
43837;SDS011;65998;46.256;7.534;2023-06-01T04:22:40;18.00;;;7.97;;
43837;SDS011;65998;46.256;7.534;2023-06-01T04:25:10;17.52;;;7.93;;
43837;SDS011;65998;46.256;7.534;2023-06-01T04:27:36;17.52;;;8.15;;
43837;SDS011;65998;46.256;7.534;2023-06-01T04:30:05;16.63;;;7.72;;
43837;SDS011;65998;46.256;7.534;2023-06-01T04:32:32;17.17;;;8.38;;
43837;SDS011;65998;46.256;7.534;2023-06-01T04:34:57;14.90;;;7.57;;
43837;SDS011;65998;46.256;7.534;2023-06-01T04:37:23;16.33;;;7.07;;
43837;SDS011;65998;46.256;7.534;2023-06-01T04:39:49;15.63;;;7.53;;
43837;SDS011;65998;46.256;7.534;2023-06-01T04:42:15;15.50;;;7.43;;
43837;SDS011;65998;46.256;7.534;2023-06-01T04:44:41;15.15;;;6.80;;
43837;SDS011;65998;46.256;7.534;2023-06-01T04:47:10;15.02;;;6.80;;
43837;SDS011;65998;46.256;7.534;2023-06-01T04:49:36;16.00;;;7.05;;
43837;SDS011;65998;46.256;7.534;2023-06-01T04:52:02;16.00;;;6.93;;
43837;SDS011;65998;46.256;7.534;2023-06-01T04:54:28;15.98;;;6.65;;
43837;SDS011;65998;46.256;7.534;2023-06-01T04:56:54;15.07;;;6.60;;
43837;SDS011;65998;46.256;7.534;2023-06-01T04:59:20;14.80;;;6.63;;
43837;SDS011;65998;46.256;7.534;2023-06-01T05:01:45;13.37;;;6.70;;
43837;SDS011;65998;46.256;7.534;2023-06-01T05:04:11;13.93;;;6.32;;
43837;SDS011;65998;46.256;7.534;2023-06-01T05:06:37;14.02;;;6.28;;
43837;SDS011;65998;46.256;7.534;2023-06-01T05:09:03;13.02;;;6.32;;
43837;SDS011;65998;46.256;7.534;2023-06-01T05:11:28;14.75;;;6.65;;
43837;SDS011;65998;46.256;7.534;2023-06-01T05:13:54;14.60;;;6.90;;
43837;SDS011;65998;46.256;7.534;2023-06-01T05:16:20;14.10;;;6.32;;
43837;SDS011;65998;46.256;7.534;2023-06-01T05:18:46;12.70;;;6.17;;
43837;SDS011;65998;46.256;7.534;2023-06-01T05:21:11;11.00;;;5.65;;
43837;SDS011;65998;46.256;7.534;2023-06-01T05:23:37;14.45;;;6.00;;
43837;SDS011;65998;46.256;7.534;2023-06-01T05:26:03;13.23;;;5.95;;
43837;SDS011;65998;46.256;7.534;2023-06-01T05:28:29;14.55;;;6.70;;
43837;SDS011;65998;46.256;7.534;2023-06-01T05:30:56;15.65;;;6.40;;
43837;SDS011;65998;46.256;7.534;2023-06-01T05:33:22;13.27;;;5.90;;
43837;SDS011;65998;46.256;7.534;2023-06-01T05:35:48;13.57;;;6.15;;
43837;SDS011;65998;46.256;7.534;2023-06-01T05:38:13;13.57;;;5.88;;
43837;SDS011;65998;46.256;7.534;2023-06-01T05:40:39;12.63;;;5.93;;
43837;SDS011;65998;46.256;7.534;2023-06-01T05:43:05;13.10;;;5.47;;
43837;SDS011;65998;46.256;7.534;2023-06-01T05:45:31;12.87;;;5.57;;
43837;SDS011;65998;46.256;7.534;2023-06-01T05:47:57;13.40;;;5.93;;
43837;SDS011;65998;46.256;7.534;2023-06-01T05:50:23;12.63;;;5.43;;
43837;SDS011;65998;46.256;7.534;2023-06-01T05:52:48;12.43;;;5.47;;
43837;SDS011;65998;46.256;7.534;2023-06-01T05:55:14;11.80;;;5.27;;
43837;SDS011;65998;46.256;7.534;2023-06-01T05:57:40;12.60;;;5.70;;
43837;SDS011;65998;46.256;7.534;2023-06-01T06:00:06;12.05;;;5.35;;
43837;SDS011;65998;46.256;7.534;2023-06-01T06:02:33;11.52;;;5.25;;
43837;SDS011;65998;46.256;7.534;2023-06-01T06:04:58;12.18;;;5.03;;
43837;SDS011;65998;46.256;7.534;2023-06-01T06:07:24;12.00;;;4.87;;
43837;SDS011;65998;46.256;7.534;2023-06-01T06:09:50;11.73;;;5.80;;
43837;SDS011;65998;46.256;7.534;2023-06-01T06:12:16;11.77;;;5.38;;
43837;SDS011;65998;46.256;7.534;2023-06-01T06:14:41;11.68;;;5.40;;
43837;SDS011;65998;46.256;7.534;2023-06-01T06:17:07;13.10;;;5.53;;
43837;SDS011;65998;46.256;7.534;2023-06-01T06:19:33;10.60;;;5.03;;
43837;SDS011;65998;46.256;7.534;2023-06-01T06:21:59;11.43;;;4.72;;
43837;SDS011;65998;46.256;7.534;2023-06-01T06:24:25;11.53;;;5.30;;
43837;SDS011;65998;46.256;7.534;2023-06-01T06:26:50;10.98;;;5.10;;
43837;SDS011;65998;46.256;7.534;2023-06-01T06:29:16;11.70;;;5.00;;
43837;SDS011;65998;46.256;7.534;2023-06-01T06:31:42;11.07;;;4.93;;
43837;SDS011;65998;46.256;7.534;2023-06-01T06:34:08;12.63;;;5.22;;
43837;SDS011;65998;46.256;7.534;2023-06-01T06:36:34;11.20;;;4.57;;
43837;SDS011;65998;46.256;7.534;2023-06-01T06:39:00;10.60;;;5.30;;
43837;SDS011;65998;46.256;7.534;2023-06-01T06:41:26;9.38;;;4.35;;
43837;SDS011;65998;46.256;7.534;2023-06-01T06:43:53;9.30;;;4.13;;
43837;SDS011;65998;46.256;7.534;2023-06-01T06:46:19;10.82;;;4.90;;
43837;SDS011;65998;46.256;7.534;2023-06-01T06:48:44;9.85;;;4.82;;
43837;SDS011;65998;46.256;7.534;2023-06-01T06:51:10;10.13;;;4.67;;
43837;SDS011;65998;46.256;7.534;2023-06-01T06:53:36;12.05;;;4.85;;
43837;SDS011;65998;46.256;7.534;2023-06-01T06:56:02;10.93;;;4.97;;
43837;SDS011;65998;46.256;7.534;2023-06-01T06:58:28;10.37;;;4.43;;
43837;SDS011;65998;46.256;7.534;2023-06-01T07:00:54;10.90;;;4.93;;
43837;SDS011;65998;46.256;7.534;2023-06-01T07:03:19;9.93;;;4.80;;
43837;SDS011;65998;46.256;7.534;2023-06-01T07:05:45;9.38;;;4.68;;
43837;SDS011;65998;46.256;7.534;2023-06-01T07:08:11;10.60;;;4.73;;
43837;SDS011;65998;46.256;7.534;2023-06-01T07:10:37;8.80;;;4.25;;
43837;SDS011;65998;46.256;7.534;2023-06-01T07:13:02;9.82;;;4.68;;
43837;SDS011;65998;46.256;7.534;2023-06-01T07:15:28;9.00;;;4.43;;
43837;SDS011;65998;46.256;7.534;2023-06-01T07:17:54;9.45;;;4.13;;
43837;SDS011;65998;46.256;7.534;2023-06-01T07:20:20;9.98;;;4.35;;
43837;SDS011;65998;46.256;7.534;2023-06-01T07:22:46;9.07;;;4.53;;
43837;SDS011;65998;46.256;7.534;2023-06-01T07:25:12;9.48;;;4.38;;
43837;SDS011;65998;46.256;7.534;2023-06-01T07:27:37;10.73;;;4.70;;
43837;SDS011;65998;46.256;7.534;2023-06-01T07:30:04;10.32;;;4.43;;
43837;SDS011;65998;46.256;7.534;2023-06-01T07:32:30;9.90;;;4.63;;
43837;SDS011;65998;46.256;7.534;2023-06-01T07:34:56;9.67;;;4.57;;
43837;SDS011;65998;46.256;7.534;2023-06-01T07:37:22;10.35;;;4.50;;
43837;SDS011;65998;46.256;7.534;2023-06-01T07:39:48;8.57;;;3.90;;
43837;SDS011;65998;46.256;7.534;2023-06-01T07:42:13;8.82;;;4.05;;
43837;SDS011;65998;46.256;7.534;2023-06-01T07:44:40;10.25;;;4.53;;
43837;SDS011;65998;46.256;7.534;2023-06-01T07:47:06;8.10;;;4.05;;
43837;SDS011;65998;46.256;7.534;2023-06-01T07:49:32;10.10;;;4.53;;
43837;SDS011;65998;46.256;7.534;2023-06-01T07:51:58;7.82;;;3.92;;
43837;SDS011;65998;46.256;7.534;2023-06-01T07:54:24;8.48;;;3.97;;
43837;SDS011;65998;46.256;7.534;2023-06-01T07:56:50;8.80;;;4.13;;
43837;SDS011;65998;46.256;7.534;2023-06-01T07:59:16;9.95;;;4.22;;
43837;SDS011;65998;46.256;7.534;2023-06-01T08:01:41;8.88;;;4.10;;
43837;SDS011;65998;46.256;7.534;2023-06-01T08:04:07;8.60;;;4.15;;
43837;SDS011;65998;46.256;7.534;2023-06-01T08:06:33;9.00;;;4.22;;
43837;SDS011;65998;46.256;7.534;2023-06-01T08:08:59;9.13;;;3.93;;
43837;SDS011;65998;46.256;7.534;2023-06-01T08:11:24;9.13;;;4.10;;
43837;SDS011;65998;46.256;7.534;2023-06-01T08:13:50;9.27;;;4.03;;
43837;SDS011;65998;46.256;7.534;2023-06-01T08:16:16;8.07;;;3.95;;
43837;SDS011;65998;46.256;7.534;2023-06-01T08:18:42;9.80;;;4.18;;
43837;SDS011;65998;46.256;7.534;2023-06-01T08:21:08;8.97;;;3.83;;
43837;SDS011;65998;46.256;7.534;2023-06-01T08:23:34;8.57;;;3.90;;
43837;SDS011;65998;46.256;7.534;2023-06-01T08:26:00;7.87;;;3.93;;
43837;SDS011;65998;46.256;7.534;2023-06-01T08:28:27;8.93;;;3.83;;
43837;SDS011;65998;46.256;7.534;2023-06-01T08:30:52;7.78;;;3.83;;
43837;SDS011;65998;46.256;7.534;2023-06-01T08:33:18;7.40;;;3.10;;
43837;SDS011;65998;46.256;7.534;2023-06-01T08:35:44;7.85;;;3.40;;
43837;SDS011;65998;46.256;7.534;2023-06-01T08:38:10;8.85;;;3.90;;
43837;SDS011;65998;46.256;7.534;2023-06-01T08:40:36;7.73;;;3.40;;
43837;SDS011;65998;46.256;7.534;2023-06-01T08:45:37;8.65;;;3.85;;
43837;SDS011;65998;46.256;7.534;2023-06-01T08:48:04;7.85;;;3.70;;
43837;SDS011;65998;46.256;7.534;2023-06-01T08:50:32;8.32;;;3.83;;
43837;SDS011;65998;46.256;7.534;2023-06-01T08:52:58;7.45;;;3.47;;
43837;SDS011;65998;46.256;7.534;2023-06-01T08:55:25;7.35;;;3.55;;
43837;SDS011;65998;46.256;7.534;2023-06-01T08:57:51;8.43;;;3.35;;
43837;SDS011;65998;46.256;7.534;2023-06-01T09:00:19;6.88;;;3.55;;
43837;SDS011;65998;46.256;7.534;2023-06-01T09:02:46;8.02;;;3.40;;
43837;SDS011;65998;46.256;7.534;2023-06-01T09:05:12;7.68;;;3.60;;
43837;SDS011;65998;46.256;7.534;2023-06-01T09:07:38;7.85;;;3.83;;
43837;SDS011;65998;46.256;7.534;2023-06-01T09:10:05;8.93;;;3.45;;
43837;SDS011;65998;46.256;7.534;2023-06-01T09:12:32;7.55;;;3.33;;
43837;SDS011;65998;46.256;7.534;2023-06-01T09:17:35;6.88;;;3.10;;
43837;SDS011;65998;46.256;7.534;2023-06-01T09:20:05;8.55;;;3.55;;
43837;SDS011;65998;46.256;7.534;2023-06-01T09:22:42;8.00;;;3.63;;
43837;SDS011;65998;46.256;7.534;2023-06-01T09:25:09;7.82;;;3.42;;
43837;SDS011;65998;46.256;7.534;2023-06-01T09:30:18;7.22;;;3.17;;
43837;SDS011;65998;46.256;7.534;2023-06-01T09:32:45;7.70;;;3.60;;
43837;SDS011;65998;46.256;7.534;2023-06-01T09:35:12;6.80;;;3.07;;
43837;SDS011;65998;46.256;7.534;2023-06-01T09:37:38;8.57;;;3.80;;
43837;SDS011;65998;46.256;7.534;2023-06-01T09:40:16;8.50;;;3.47;;
43837;SDS011;65998;46.256;7.534;2023-06-01T09:42:43;7.23;;;2.80;;
43837;SDS011;65998;46.256;7.534;2023-06-01T09:45:19;6.75;;;3.03;;
43837;SDS011;65998;46.256;7.534;2023-06-01T09:47:47;7.45;;;3.33;;
43837;SDS011;65998;46.256;7.534;2023-06-01T09:50:32;5.82;;;2.80;;
43837;SDS011;65998;46.256;7.534;2023-06-01T09:53:00;6.50;;;3.00;;
43837;SDS011;65998;46.256;7.534;2023-06-01T09:55:26;7.40;;;3.15;;
43837;SDS011;65998;46.256;7.534;2023-06-01T09:57:52;6.25;;;2.90;;
43837;SDS011;65998;46.256;7.534;2023-06-01T10:00:38;7.63;;;3.15;;
43837;SDS011;65998;46.256;7.534;2023-06-01T10:03:04;7.90;;;3.27;;
43837;SDS011;65998;46.256;7.534;2023-06-01T10:05:31;7.70;;;3.50;;
43837;SDS011;65998;46.256;7.534;2023-06-01T10:07:57;6.03;;;2.90;;
43837;SDS011;65998;46.256;7.534;2023-06-01T10:10:23;6.38;;;2.90;;
43837;SDS011;65998;46.256;7.534;2023-06-01T10:12:49;7.30;;;3.10;;
43837;SDS011;65998;46.256;7.534;2023-06-01T10:15:14;5.78;;;3.00;;
43837;SDS011;65998;46.256;7.534;2023-06-01T10:17:41;6.25;;;3.08;;
43837;SDS011;65998;46.256;7.534;2023-06-01T10:20:08;6.27;;;2.97;;
43837;SDS011;65998;46.256;7.534;2023-06-01T10:22:38;6.45;;;2.90;;
43837;SDS011;65998;46.256;7.534;2023-06-01T10:25:06;6.80;;;2.90;;
43837;SDS011;65998;46.256;7.534;2023-06-01T10:27:38;7.32;;;3.30;;
43837;SDS011;65998;46.256;7.534;2023-06-01T10:30:08;6.97;;;2.80;;
43837;SDS011;65998;46.256;7.534;2023-06-01T10:32:42;6.10;;;2.60;;
43837;SDS011;65998;46.256;7.534;2023-06-01T10:35:08;6.82;;;3.05;;
43837;SDS011;65998;46.256;7.534;2023-06-01T10:37:35;5.72;;;2.75;;
43837;SDS011;65998;46.256;7.534;2023-06-01T10:42:55;7.00;;;2.90;;
43837;SDS011;65998;46.256;7.534;2023-06-01T10:47:59;6.67;;;2.80;;
43837;SDS011;65998;46.256;7.534;2023-06-01T10:50:26;5.65;;;2.70;;
43837;SDS011;65998;46.256;7.534;2023-06-01T10:52:53;6.65;;;2.80;;
43837;SDS011;65998;46.256;7.534;2023-06-01T10:55:21;5.82;;;2.58;;
43837;SDS011;65998;46.256;7.534;2023-06-01T10:57:51;5.97;;;2.78;;
43837;SDS011;65998;46.256;7.534;2023-06-01T11:00:46;5.60;;;2.70;;
43837;SDS011;65998;46.256;7.534;2023-06-01T11:03:14;6.88;;;2.97;;
43837;SDS011;65998;46.256;7.534;2023-06-01T11:05:49;6.10;;;2.78;;
43837;SDS011;65998;46.256;7.534;2023-06-01T11:13:19;6.07;;;2.78;;
43837;SDS011;65998;46.256;7.534;2023-06-01T11:21:05;6.05;;;2.75;;
43837;SDS011;65998;46.256;7.534;2023-06-01T11:23:31;5.17;;;2.60;;
43837;SDS011;65998;46.256;7.534;2023-06-01T11:25:57;6.18;;;2.70;;
43837;SDS011;65998;46.256;7.534;2023-06-01T11:28:28;5.22;;;2.70;;
43837;SDS011;65998;46.256;7.534;2023-06-01T11:30:54;5.88;;;2.50;;
43837;SDS011;65998;46.256;7.534;2023-06-01T11:33:21;6.03;;;2.87;;
43837;SDS011;65998;46.256;7.534;2023-06-01T11:35:47;6.30;;;2.50;;
43837;SDS011;65998;46.256;7.534;2023-06-01T11:38:22;6.05;;;2.63;;
43837;SDS011;65998;46.256;7.534;2023-06-01T11:43:44;5.65;;;2.63;;
43837;SDS011;65998;46.256;7.534;2023-06-01T11:46:10;5.57;;;2.35;;
43837;SDS011;65998;46.256;7.534;2023-06-01T11:48:36;5.30;;;2.27;;
43837;SDS011;65998;46.256;7.534;2023-06-01T11:51:02;5.32;;;2.17;;
43837;SDS011;65998;46.256;7.534;2023-06-01T11:53:29;5.03;;;2.28;;
43837;SDS011;65998;46.256;7.534;2023-06-01T11:55:55;5.77;;;2.40;;
43837;SDS011;65998;46.256;7.534;2023-06-01T12:00:54;5.70;;;2.38;;
43837;SDS011;65998;46.256;7.534;2023-06-01T12:03:22;5.00;;;2.30;;
43837;SDS011;65998;46.256;7.534;2023-06-01T12:05:49;5.50;;;2.35;;
43837;SDS011;65998;46.256;7.534;2023-06-01T12:08:16;5.80;;;2.30;;
43837;SDS011;65998;46.256;7.534;2023-06-01T12:10:44;6.10;;;2.60;;
43837;SDS011;65998;46.256;7.534;2023-06-01T12:13:11;4.57;;;2.50;;
43837;SDS011;65998;46.256;7.534;2023-06-01T12:15:37;5.03;;;2.30;;
43837;SDS011;65998;46.256;7.534;2023-06-01T12:18:03;4.68;;;2.10;;
43837;SDS011;65998;46.256;7.534;2023-06-01T12:20:29;5.73;;;2.43;;
43837;SDS011;65998;46.256;7.534;2023-06-01T12:22:56;5.20;;;2.53;;
43837;SDS011;65998;46.256;7.534;2023-06-01T12:25:23;5.03;;;2.45;;
43837;SDS011;65998;46.256;7.534;2023-06-01T12:28:02;5.30;;;2.20;;
43837;SDS011;65998;46.256;7.534;2023-06-01T12:30:28;5.32;;;2.50;;
43837;SDS011;65998;46.256;7.534;2023-06-01T12:32:55;4.82;;;2.28;;
43837;SDS011;65998;46.256;7.534;2023-06-01T12:35:20;5.30;;;2.35;;
43837;SDS011;65998;46.256;7.534;2023-06-01T12:38:01;5.60;;;2.23;;
43837;SDS011;65998;46.256;7.534;2023-06-01T12:40:36;4.80;;;2.22;;
43837;SDS011;65998;46.256;7.534;2023-06-01T12:43:03;4.75;;;2.20;;
43837;SDS011;65998;46.256;7.534;2023-06-01T12:45:35;4.93;;;2.38;;
43837;SDS011;65998;46.256;7.534;2023-06-01T12:48:03;5.68;;;2.50;;
43837;SDS011;65998;46.256;7.534;2023-06-01T12:50:29;5.10;;;2.10;;
43837;SDS011;65998;46.256;7.534;2023-06-01T12:52:55;4.15;;;2.00;;
43837;SDS011;65998;46.256;7.534;2023-06-01T12:55:21;4.63;;;2.33;;
43837;SDS011;65998;46.256;7.534;2023-06-01T12:57:53;5.07;;;2.10;;
43837;SDS011;65998;46.256;7.534;2023-06-01T13:00:20;4.97;;;2.20;;
43837;SDS011;65998;46.256;7.534;2023-06-01T13:02:47;5.15;;;2.40;;
43837;SDS011;65998;46.256;7.534;2023-06-01T13:05:13;4.50;;;2.00;;
43837;SDS011;65998;46.256;7.534;2023-06-01T13:07:39;4.57;;;2.10;;
43837;SDS011;65998;46.256;7.534;2023-06-01T13:10:05;5.10;;;2.40;;
43837;SDS011;65998;46.256;7.534;2023-06-01T13:12:31;5.18;;;2.30;;
43837;SDS011;65998;46.256;7.534;2023-06-01T13:14:57;4.55;;;2.33;;
43837;SDS011;65998;46.256;7.534;2023-06-01T13:17:23;4.77;;;2.13;;
43837;SDS011;65998;46.256;7.534;2023-06-01T13:19:48;5.60;;;2.30;;
43837;SDS011;65998;46.256;7.534;2023-06-01T13:22:14;4.95;;;2.47;;
43837;SDS011;65998;46.256;7.534;2023-06-01T13:24:40;4.38;;;2.00;;
43837;SDS011;65998;46.256;7.534;2023-06-01T13:27:07;4.38;;;2.00;;
43837;SDS011;65998;46.256;7.534;2023-06-01T13:29:32;5.07;;;2.40;;
43837;SDS011;65998;46.256;7.534;2023-06-01T13:31:58;4.38;;;2.00;;
43837;SDS011;65998;46.256;7.534;2023-06-01T13:34:24;4.93;;;2.30;;
43837;SDS011;65998;46.256;7.534;2023-06-01T13:36:50;5.07;;;2.30;;
43837;SDS011;65998;46.256;7.534;2023-06-01T13:39:15;4.60;;;2.20;;
43837;SDS011;65998;46.256;7.534;2023-06-01T13:41:41;4.87;;;2.13;;
43837;SDS011;65998;46.256;7.534;2023-06-01T13:44:07;4.07;;;2.00;;
43837;SDS011;65998;46.256;7.534;2023-06-01T13:46:33;4.20;;;2.08;;
43837;SDS011;65998;46.256;7.534;2023-06-01T13:48:59;4.32;;;1.98;;
43837;SDS011;65998;46.256;7.534;2023-06-01T13:51:25;5.32;;;2.08;;
43837;SDS011;65998;46.256;7.534;2023-06-01T13:53:50;5.10;;;2.47;;
43837;SDS011;65998;46.256;7.534;2023-06-01T13:56:16;4.50;;;2.03;;
43837;SDS011;65998;46.256;7.534;2023-06-01T13:58:42;5.30;;;2.30;;
43837;SDS011;65998;46.256;7.534;2023-06-01T14:01:08;4.18;;;1.95;;
43837;SDS011;65998;46.256;7.534;2023-06-01T14:03:33;4.13;;;2.10;;
43837;SDS011;65998;46.256;7.534;2023-06-01T14:05:59;5.03;;;2.17;;
43837;SDS011;65998;46.256;7.534;2023-06-01T14:08:25;4.45;;;1.80;;
43837;SDS011;65998;46.256;7.534;2023-06-01T14:10:51;3.83;;;2.10;;
43837;SDS011;65998;46.256;7.534;2023-06-01T14:13:17;5.47;;;2.17;;
43837;SDS011;65998;46.256;7.534;2023-06-01T14:15:43;4.53;;;1.80;;
43837;SDS011;65998;46.256;7.534;2023-06-01T14:18:08;4.72;;;1.98;;
43837;SDS011;65998;46.256;7.534;2023-06-01T14:20:34;3.70;;;1.90;;
43837;SDS011;65998;46.256;7.534;2023-06-01T14:23:00;3.90;;;1.83;;
43837;SDS011;65998;46.256;7.534;2023-06-01T14:25:26;4.05;;;1.75;;
43837;SDS011;65998;46.256;7.534;2023-06-01T14:27:51;4.47;;;2.13;;
43837;SDS011;65998;46.256;7.534;2023-06-01T14:30:17;4.38;;;2.00;;
43837;SDS011;65998;46.256;7.534;2023-06-01T14:32:43;4.67;;;2.00;;
43837;SDS011;65998;46.256;7.534;2023-06-01T14:35:09;4.45;;;1.90;;
43837;SDS011;65998;46.256;7.534;2023-06-01T14:37:35;3.55;;;1.73;;
43837;SDS011;65998;46.256;7.534;2023-06-01T14:40:01;3.60;;;1.80;;
43837;SDS011;65998;46.256;7.534;2023-06-01T14:42:26;4.35;;;1.80;;
43837;SDS011;65998;46.256;7.534;2023-06-01T14:44:52;4.03;;;1.80;;
43837;SDS011;65998;46.256;7.534;2023-06-01T14:47:18;3.70;;;1.70;;
43837;SDS011;65998;46.256;7.534;2023-06-01T14:49:44;3.90;;;1.80;;
43837;SDS011;65998;46.256;7.534;2023-06-01T14:52:10;4.80;;;2.10;;
43837;SDS011;65998;46.256;7.534;2023-06-01T14:54:35;4.97;;;1.90;;
43837;SDS011;65998;46.256;7.534;2023-06-01T14:57:01;3.80;;;1.60;;
43837;SDS011;65998;46.256;7.534;2023-06-01T14:59:27;3.95;;;1.67;;
43837;SDS011;65998;46.256;7.534;2023-06-01T15:01:53;3.78;;;1.77;;
43837;SDS011;65998;46.256;7.534;2023-06-01T15:04:19;4.33;;;1.87;;
43837;SDS011;65998;46.256;7.534;2023-06-01T15:06:44;3.95;;;1.90;;
43837;SDS011;65998;46.256;7.534;2023-06-01T15:09:10;4.05;;;1.77;;
43837;SDS011;65998;46.256;7.534;2023-06-01T15:11:36;4.03;;;1.77;;
43837;SDS011;65998;46.256;7.534;2023-06-01T15:14:02;3.85;;;1.83;;